Moyer Aviation Incorporated

Pocono Mountains Airport

188 Airport Drive. Tobyhanna, PA 18466 

P: 570-839-7161
800-321-5890
F: 570-839-7162

Weather

Weather

Pocono Weather

KMPO 020953Z AUTO 00000KT 10SM CLR M08/M09 A3041 RMK AO2 SLP329 I1000 T10831094

Allentown Weather

KABE 020951Z 00000KT 10SM CLR M06/M08 A3051 RMK AO2 SLP338 T10561083

Wilkes-Barre Weather

KAVP 020954Z 10004KT 10SM CLR M04/M07 A3048 RMK AO2 SLP330 T10441072


* required field

Contact Us